createdAt,value
2022-09-17T00:01:31.040Z,99.90
2022-09-17T00:04:04.645Z,99.90
2022-09-17T00:06:35.209Z,99.90
2022-09-17T00:09:05.009Z,99.90
2022-09-17T00:11:35.384Z,99.90
2022-09-17T00:14:05.053Z,99.90
2022-09-17T00:16:44.601Z,99.90
2022-09-17T00:19:19.840Z,99.90
2022-09-17T00:21:47.402Z,99.90
2022-09-17T00:24:17.313Z,99.90
2022-09-17T00:26:44.317Z,99.90
2022-09-17T00:29:11.426Z,99.90
2022-09-17T00:31:39.168Z,99.90
2022-09-17T00:34:07.167Z,99.90
2022-09-17T00:36:39.523Z,99.90
2022-09-17T00:39:09.181Z,99.90
2022-09-17T00:41:37.930Z,99.90
2022-09-17T00:44:49.580Z,99.90
2022-09-17T00:47:29.995Z,99.90
2022-09-17T00:50:07.952Z,99.90
2022-09-17T00:52:46.544Z,99.90
2022-09-17T00:55:39.248Z,99.90
2022-09-17T00:58:10.868Z,99.90
2022-09-17T01:00:37.940Z,99.90
2022-09-17T01:03:05.168Z,99.90
2022-09-17T01:06:21.006Z,99.90
2022-09-17T01:09:31.388Z,99.90
2022-09-17T01:12:39.280Z,99.90
2022-09-17T01:15:36.947Z,99.90
2022-09-17T01:18:37.352Z,99.90
2022-09-17T01:22:00.010Z,99.90
2022-09-17T01:24:49.878Z,99.90
2022-09-17T01:28:09.178Z,99.90
2022-09-17T01:31:04.508Z,99.90
2022-09-17T01:34:14.348Z,99.90
2022-09-17T01:36:54.798Z,99.90
2022-09-17T01:39:54.782Z,99.90
2022-09-17T01:42:37.798Z,99.90
2022-09-17T01:45:19.516Z,99.90
2022-09-17T01:48:07.530Z,99.90
2022-09-17T01:50:42.990Z,99.90
2022-09-17T01:53:12.951Z,99.90
2022-09-17T01:55:45.797Z,99.90
2022-09-17T01:58:31.645Z,99.90
2022-09-17T02:01:10.772Z,99.90
2022-09-17T02:03:46.342Z,99.90
2022-09-17T02:06:24.675Z,99.90
2022-09-17T02:08:56.963Z,99.90
2022-09-17T02:11:24.681Z,99.90
2022-09-17T02:14:03.188Z,99.90
2022-09-17T02:16:35.904Z,99.90
2022-09-17T02:19:10.835Z,99.90
2022-09-17T02:22:05.097Z,99.90
2022-09-17T02:24:57.693Z,99.90
2022-09-17T02:28:04.713Z,99.90
2022-09-17T02:30:32.160Z,99.90
2022-09-17T02:33:02.187Z,99.90
2022-09-17T02:35:32.157Z,99.90
2022-09-17T02:38:00.904Z,99.90
2022-09-17T02:40:35.320Z,99.90
2022-09-17T02:43:38.794Z,99.90
2022-09-17T02:46:36.245Z,99.90
2022-09-17T02:49:41.221Z,99.90
2022-09-17T02:52:16.698Z,99.90
2022-09-17T02:55:02.343Z,99.90
2022-09-17T02:58:04.167Z,99.90
2022-09-17T03:00:32.102Z,99.90
2022-09-17T03:03:10.718Z,99.90
2022-09-17T03:05:42.115Z,99.90
2022-09-17T03:08:14.170Z,99.90
2022-09-17T03:10:41.353Z,99.90
2022-09-17T03:13:08.131Z,99.90
2022-09-17T03:15:34.900Z,99.90
2022-09-17T03:18:02.117Z,99.90
2022-09-17T03:20:29.009Z,99.90
2022-09-17T03:22:55.783Z,99.90
2022-09-17T03:25:22.664Z,99.90
2022-09-17T03:27:49.534Z,99.90
2022-09-17T03:30:16.365Z,99.90
2022-09-17T03:32:43.078Z,99.90
2022-09-17T03:35:10.038Z,99.90
2022-09-17T03:37:36.873Z,99.90
2022-09-17T03:40:04.935Z,99.90
2022-09-17T03:42:31.686Z,99.90
2022-09-17T03:44:58.639Z,99.90
2022-09-17T03:47:25.360Z,99.90
2022-09-17T03:49:52.296Z,99.90
2022-09-17T03:52:19.141Z,99.90
2022-09-17T03:54:45.857Z,99.90
2022-09-17T03:57:12.595Z,99.90
2022-09-17T03:59:39.811Z,99.90
2022-09-17T04:02:07.070Z,99.90
2022-09-17T04:04:34.147Z,99.90
2022-09-17T04:07:00.930Z,99.90
2022-09-17T04:09:27.925Z,99.90
2022-09-17T04:11:55.057Z,99.90
2022-09-17T04:14:21.887Z,99.90
2022-09-17T04:16:48.594Z,99.90
2022-09-17T04:19:15.613Z,99.90
2022-09-17T04:21:42.473Z,99.90
2022-09-17T04:24:09.521Z,99.90
2022-09-17T04:26:36.362Z,99.90
2022-09-17T04:29:03.285Z,99.90
2022-09-17T04:31:30.102Z,99.90
2022-09-17T04:33:56.910Z,99.90
2022-09-17T04:36:26.908Z,99.90
2022-09-17T04:38:56.886Z,99.90
2022-09-17T04:41:23.894Z,99.90
2022-09-17T04:43:51.125Z,99.90
2022-09-17T04:46:18.183Z,99.90
2022-09-17T04:48:45.090Z,99.90
2022-09-17T04:51:12.080Z,99.90
2022-09-17T04:53:38.841Z,99.90
2022-09-17T04:56:05.946Z,99.90
2022-09-17T04:58:33.013Z,99.90
2022-09-17T05:00:59.968Z,99.90
2022-09-17T05:03:26.968Z,99.90
2022-09-17T05:05:53.679Z,99.90
2022-09-17T05:08:22.891Z,99.90
2022-09-17T05:10:51.488Z,99.90
2022-09-17T05:13:18.903Z,99.90
2022-09-17T05:15:45.710Z,99.90
2022-09-17T05:18:12.493Z,99.90
2022-09-17T05:20:39.405Z,99.90
2022-09-17T05:23:06.204Z,99.90
2022-09-17T05:25:32.967Z,99.90
2022-09-17T05:28:01.252Z,99.90
2022-09-17T05:30:28.053Z,99.90
2022-09-17T05:33:04.518Z,99.90
2022-09-17T05:35:32.833Z,99.90
2022-09-17T05:38:03.307Z,99.90
2022-09-17T05:40:32.742Z,99.90
2022-09-17T05:43:05.852Z,99.90
2022-09-17T05:45:37.498Z,99.90
2022-09-17T05:48:09.673Z,99.90
2022-09-17T05:50:36.407Z,99.90
2022-09-17T05:53:11.776Z,99.90
2022-09-17T05:55:39.093Z,99.90
2022-09-17T05:58:14.398Z,99.90
2022-09-17T06:00:42.638Z,99.90
2022-09-17T06:03:15.515Z,99.90
2022-09-17T06:05:42.789Z,99.90
2022-09-17T06:08:10.497Z,99.90
2022-09-17T06:10:39.153Z,99.90
2022-09-17T06:13:05.997Z,99.90
2022-09-17T06:15:32.773Z,99.90
2022-09-17T06:17:59.502Z,99.90
2022-09-17T06:20:26.250Z,99.90
2022-09-17T06:22:57.885Z,99.90
2022-09-17T06:25:26.458Z,99.90
2022-09-17T06:27:53.234Z,99.90
2022-09-17T06:30:20.133Z,99.90
2022-09-17T06:32:47.218Z,99.90
2022-09-17T06:35:14.360Z,99.90
2022-09-17T06:37:41.218Z,99.90
2022-09-17T06:40:09.738Z,99.90
2022-09-17T06:42:36.573Z,99.90
2022-09-17T06:45:08.534Z,99.90
2022-09-17T06:47:37.045Z,99.90
2022-09-17T06:50:06.114Z,99.90
2022-09-17T06:52:32.994Z,99.90
2022-09-17T06:54:59.742Z,99.90
2022-09-17T06:57:26.529Z,99.90
2022-09-17T06:59:53.513Z,99.90
2022-09-17T07:02:20.470Z,99.90
2022-09-17T07:04:47.303Z,99.90
2022-09-17T07:07:14.388Z,99.90
2022-09-17T07:09:41.142Z,99.90
2022-09-17T07:12:09.064Z,99.90
2022-09-17T07:14:36.284Z,99.90
2022-09-17T07:17:03.376Z,99.90
2022-09-17T07:19:30.155Z,99.90
2022-09-17T07:21:56.915Z,99.90
2022-09-17T07:24:23.899Z,99.90
2022-09-17T07:26:51.910Z,99.90
2022-09-17T07:29:18.774Z,99.90
2022-09-17T07:31:45.599Z,99.90
2022-09-17T07:34:12.545Z,99.90
2022-09-17T07:36:39.506Z,99.90
2022-09-17T07:39:06.425Z,99.90
2022-09-17T07:41:34.381Z,99.90
2022-09-17T07:44:02.573Z,99.90
2022-09-17T07:46:30.126Z,99.90
2022-09-17T07:48:56.983Z,99.90
2022-09-17T07:51:30.005Z,99.90
2022-09-17T07:53:59.509Z,99.90
2022-09-17T07:56:27.882Z,99.90
2022-09-17T07:58:55.760Z,99.90
2022-09-17T08:01:24.870Z,99.90
2022-09-17T08:03:54.770Z,99.90
2022-09-17T08:06:28.379Z,99.90
2022-09-17T08:08:57.862Z,99.90
2022-09-17T08:11:51.822Z,99.90
2022-09-17T08:14:15.785Z,99.90
2022-09-17T08:16:42.936Z,99.90
2022-09-17T08:19:12.540Z,99.90
2022-09-17T08:21:39.793Z,99.90
2022-09-17T08:24:06.975Z,99.90
2022-09-17T08:26:33.934Z,99.90
2022-09-17T08:29:00.854Z,99.90
2022-09-17T08:31:30.415Z,99.90
2022-09-17T08:33:57.866Z,99.90
2022-09-17T08:36:26.326Z,99.90
2022-09-17T08:38:55.308Z,99.90
2022-09-17T08:41:42.633Z,99.90
2022-09-17T08:44:50.656Z,99.90
2022-09-17T08:47:36.290Z,99.90
2022-09-17T08:50:08.084Z,99.90
2022-09-17T08:53:36.954Z,99.90
2022-09-17T08:56:19.515Z,99.90
2022-09-17T08:58:52.612Z,99.90
2022-09-17T09:01:43.506Z,99.90
2022-09-17T09:04:29.221Z,99.90
2022-09-17T09:07:10.569Z,99.90
2022-09-17T09:09:47.034Z,99.90
2022-09-17T09:12:28.086Z,99.90
2022-09-17T09:15:06.264Z,99.90
2022-09-17T09:17:46.179Z,99.90
2022-09-17T09:20:56.422Z,99.90
2022-09-17T09:24:14.656Z,99.90
2022-09-17T09:27:14.314Z,99.90
2022-09-17T09:30:02.363Z,99.90
2022-09-17T09:32:37.731Z,99.90
2022-09-17T09:35:39.843Z,99.90
2022-09-17T09:38:09.327Z,99.90
2022-09-17T09:41:03.089Z,99.90
2022-09-17T09:44:04.779Z,99.90
2022-09-17T09:47:14.026Z,99.90
2022-09-17T09:49:47.527Z,99.90
2022-09-17T09:52:42.884Z,99.90
2022-09-17T09:55:35.116Z,99.90
2022-09-17T09:58:36.714Z,99.90
2022-09-17T10:01:15.942Z,99.90
2022-09-17T10:03:46.408Z,99.90
2022-09-17T10:06:19.735Z,99.90
2022-09-17T10:08:55.641Z,99.90
2022-09-17T10:11:25.109Z,99.90
2022-09-17T10:13:52.045Z,99.90
2022-09-17T10:16:26.304Z,99.90
2022-09-17T10:19:05.112Z,99.90
2022-09-17T10:21:41.941Z,99.90
2022-09-17T10:24:32.080Z,99.90
2022-09-17T10:27:13.226Z,99.90
2022-09-17T10:29:47.215Z,99.90
2022-09-17T10:32:22.902Z,99.90
2022-09-17T10:35:15.574Z,99.90
2022-09-17T10:37:52.060Z,99.90
2022-09-17T10:40:19.135Z,99.90
2022-09-17T10:43:21.640Z,99.60
2022-09-17T10:46:00.307Z,98.10
2022-09-17T10:48:38.481Z,96.50
2022-09-17T10:51:08.211Z,96.50
2022-09-17T10:54:00.780Z,96.40
2022-09-17T10:56:39.869Z,95.80
2022-09-17T10:59:43.230Z,95.20
2022-09-17T11:02:50.194Z,96.00
2022-09-17T11:06:00.048Z,96.40
2022-09-17T11:09:09.754Z,95.70
2022-09-17T11:11:54.744Z,94.20
2022-09-17T11:15:19.675Z,94.30
2022-09-17T11:18:55.080Z,94.70
2022-09-17T11:21:49.030Z,93.70
2022-09-17T11:24:45.696Z,93.10
2022-09-17T11:27:46.413Z,92.70
2022-09-17T11:30:25.681Z,93.60
2022-09-17T11:33:25.055Z,92.80
2022-09-17T11:36:12.911Z,92.40
2022-09-17T11:38:49.240Z,93.60
2022-09-17T11:41:34.383Z,92.80
2022-09-17T11:44:25.832Z,92.80
2022-09-17T11:47:11.060Z,92.30
2022-09-17T11:50:28.304Z,93.00
2022-09-17T11:53:29.604Z,94.60
2022-09-17T11:56:10.407Z,96.80
2022-09-17T11:59:05.205Z,97.60
2022-09-17T12:02:00.528Z,99.10
2022-09-17T12:04:37.690Z,99.90
2022-09-17T12:07:54.631Z,99.90
2022-09-17T12:10:52.995Z,99.90
2022-09-17T12:13:48.625Z,99.90
2022-09-17T12:16:39.512Z,99.90
2022-09-17T12:19:26.562Z,99.90
2022-09-17T12:22:19.383Z,99.90
2022-09-17T12:24:46.544Z,99.90
2022-09-17T12:27:37.555Z,99.90
2022-09-17T12:30:09.754Z,99.90
2022-09-17T12:32:59.285Z,99.90
2022-09-17T12:36:12.216Z,99.90
2022-09-17T12:39:06.880Z,99.90
2022-09-17T12:41:58.419Z,99.90
2022-09-17T12:45:04.807Z,99.90
2022-09-17T12:48:07.973Z,99.90
2022-09-17T12:51:26.230Z,99.90
2022-09-17T12:54:32.061Z,99.90
2022-09-17T12:57:12.753Z,99.90
2022-09-17T12:59:53.850Z,99.90
2022-09-17T13:02:20.710Z,99.90
2022-09-17T13:05:35.866Z,99.90
2022-09-17T13:08:30.452Z,99.90
2022-09-17T13:10:59.869Z,99.90
2022-09-17T13:13:57.129Z,99.90
2022-09-17T13:16:32.430Z,99.90
2022-09-17T13:19:39.152Z,99.90
2022-09-17T13:22:26.109Z,99.90
2022-09-17T13:25:21.830Z,99.90
2022-09-17T13:27:50.935Z,99.90
2022-09-17T13:30:20.849Z,99.90
2022-09-17T13:32:51.111Z,99.90
2022-09-17T13:35:17.767Z,99.90
2022-09-17T13:37:56.443Z,99.90
2022-09-17T13:40:31.028Z,99.90
2022-09-17T13:43:23.920Z,99.90
2022-09-17T13:45:59.961Z,99.90
2022-09-17T13:48:38.082Z,99.90
2022-09-17T13:51:32.544Z,99.90
2022-09-17T13:54:06.923Z,99.90
2022-09-17T13:56:46.208Z,99.90
2022-09-17T13:59:17.762Z,99.90
2022-09-17T14:01:59.512Z,99.90
2022-09-17T14:04:41.231Z,99.90
2022-09-17T14:07:24.198Z,99.90
2022-09-17T14:10:25.837Z,99.90
2022-09-17T14:12:59.259Z,99.90
2022-09-17T14:15:41.462Z,99.90
2022-09-17T14:18:26.858Z,99.90
2022-09-17T14:21:12.509Z,99.90
2022-09-17T14:23:47.642Z,99.90
2022-09-17T14:26:37.107Z,99.90
2022-09-17T14:29:34.548Z,99.90
2022-09-17T14:32:01.642Z,99.90
2022-09-17T14:34:31.625Z,99.90
2022-09-17T14:36:59.780Z,99.90
2022-09-17T14:39:39.693Z,99.90
2022-09-17T14:42:18.916Z,99.90
2022-09-17T14:45:02.054Z,99.90
2022-09-17T14:47:28.868Z,99.90
2022-09-17T14:50:10.028Z,99.90
2022-09-17T14:52:38.684Z,99.90
2022-09-17T14:55:30.443Z,99.90
2022-09-17T14:58:04.788Z,99.90
2022-09-17T15:00:38.822Z,99.90
2022-09-17T15:03:06.229Z,99.90
2022-09-17T15:05:40.058Z,99.90
2022-09-17T15:08:11.190Z,99.90
2022-09-17T15:10:56.608Z,99.90
2022-09-17T15:13:29.778Z,99.90
2022-09-17T15:16:12.666Z,99.90
2022-09-17T15:18:50.605Z,99.90
2022-09-17T15:21:33.231Z,99.90
2022-09-17T15:24:22.862Z,99.90
2022-09-17T15:26:56.397Z,99.90
2022-09-17T15:29:30.380Z,99.90
2022-09-17T15:31:57.489Z,99.90
2022-09-17T15:34:24.257Z,99.90
2022-09-17T15:37:25.162Z,99.90
2022-09-17T15:39:55.516Z,99.90
2022-09-17T15:42:31.212Z,99.90
2022-09-17T15:45:19.910Z,99.90
2022-09-17T15:47:57.930Z,99.90
2022-09-17T15:50:26.099Z,99.90
2022-09-17T15:53:08.673Z,99.90
2022-09-17T15:55:41.466Z,99.90
2022-09-17T15:58:27.026Z,99.90
2022-09-17T16:01:29.229Z,99.90
2022-09-17T16:04:08.375Z,99.90
2022-09-17T16:06:37.549Z,99.90
2022-09-17T16:09:42.819Z,99.90
2022-09-17T16:12:14.246Z,99.90
2022-09-17T16:14:53.318Z,99.90
2022-09-17T16:17:46.351Z,99.90
2022-09-17T16:20:21.966Z,99.90
2022-09-17T16:22:50.415Z,99.90
2022-09-17T16:25:19.904Z,99.90
2022-09-17T16:27:57.273Z,99.90
2022-09-17T16:30:24.920Z,99.90
2022-09-17T16:32:52.908Z,99.90
2022-09-17T16:35:23.732Z,99.90
2022-09-17T16:37:53.159Z,99.90
2022-09-17T16:40:22.861Z,99.90
2022-09-17T16:42:50.208Z,99.90
2022-09-17T16:45:17.255Z,99.90
2022-09-17T16:47:44.857Z,99.90
2022-09-17T16:50:16.062Z,99.90
2022-09-17T16:52:43.855Z,99.90
2022-09-17T16:55:13.920Z,99.90
2022-09-17T16:57:41.126Z,99.90
2022-09-17T17:00:12.951Z,99.90
2022-09-17T17:02:39.807Z,99.90
2022-09-17T17:05:07.194Z,99.90
2022-09-17T17:07:35.631Z,99.90
2022-09-17T17:10:05.049Z,99.90
2022-09-17T17:12:31.879Z,99.90
2022-09-17T17:14:58.735Z,99.90
2022-09-17T17:17:25.941Z,99.90
2022-09-17T17:19:53.388Z,99.90
2022-09-17T17:22:20.519Z,99.90
2022-09-17T17:24:47.627Z,99.90
2022-09-17T17:27:14.606Z,99.90
2022-09-17T17:29:41.790Z,99.90
2022-09-17T17:32:08.812Z,99.90
2022-09-17T17:34:35.576Z,99.90
2022-09-17T17:37:02.379Z,99.90
2022-09-17T17:39:29.247Z,99.90
2022-09-17T17:41:56.264Z,99.90
2022-09-17T17:44:23.075Z,99.90
2022-09-17T17:46:49.893Z,99.90
2022-09-17T17:49:17.042Z,99.90
2022-09-17T17:51:45.198Z,99.90
2022-09-17T17:54:11.983Z,99.90
2022-09-17T17:56:38.671Z,99.90
2022-09-17T17:59:05.731Z,99.90
2022-09-17T18:01:35.129Z,99.90
2022-09-17T18:04:07.119Z,99.90
2022-09-17T18:06:34.533Z,99.90
2022-09-17T18:09:02.458Z,99.90
2022-09-17T18:11:29.692Z,99.90
2022-09-17T18:13:58.352Z,99.90
2022-09-17T18:16:25.200Z,99.90
2022-09-17T18:18:52.198Z,99.90
2022-09-17T18:21:22.774Z,99.90
2022-09-17T18:23:50.662Z,99.90
2022-09-17T18:26:22.008Z,99.90
2022-09-17T18:28:49.579Z,99.90
2022-09-17T18:31:26.813Z,99.90
2022-09-17T18:34:07.570Z,99.90
2022-09-17T18:36:36.752Z,99.90
2022-09-17T18:41:59.870Z,99.90
2022-09-17T18:44:27.770Z,99.90
2022-09-17T18:46:54.656Z,99.90
2022-09-17T18:49:21.891Z,99.90
2022-09-17T18:51:48.690Z,99.90
2022-09-17T18:54:18.054Z,99.90
2022-09-17T18:56:45.044Z,99.90
2022-09-17T18:59:11.813Z,99.90
2022-09-17T19:01:39.012Z,99.90
2022-09-17T19:04:07.757Z,99.90
2022-09-17T19:06:35.522Z,99.90
2022-09-17T19:09:05.237Z,99.90
2022-09-17T19:11:32.233Z,99.90
2022-09-17T19:13:59.333Z,99.90
2022-09-17T19:16:26.370Z,99.90
2022-09-17T19:18:53.506Z,99.90
2022-09-17T19:21:21.771Z,99.90
2022-09-17T19:23:51.678Z,99.90
2022-09-17T19:26:24.842Z,99.90
2022-09-17T19:28:57.898Z,99.90
2022-09-17T19:31:25.613Z,99.90
2022-09-17T19:33:53.388Z,99.90
2022-09-17T19:36:26.222Z,99.90
2022-09-17T19:38:53.044Z,99.90
2022-09-17T19:41:25.420Z,99.90
2022-09-17T19:43:56.860Z,99.90
2022-09-17T19:46:26.404Z,99.90
2022-09-17T19:48:57.065Z,99.90
2022-09-17T19:51:28.187Z,99.90
2022-09-17T19:53:55.735Z,99.90
2022-09-17T19:56:25.511Z,99.90
2022-09-17T19:58:52.798Z,99.90
2022-09-17T20:01:20.340Z,99.90
2022-09-17T20:03:50.582Z,99.90
2022-09-17T20:06:20.829Z,99.90
2022-09-17T20:08:53.748Z,99.90
2022-09-17T20:11:24.107Z,99.90
2022-09-17T20:13:56.849Z,99.90
2022-09-17T20:16:23.833Z,99.90
2022-09-17T20:18:51.298Z,99.90
2022-09-17T20:21:22.700Z,99.90
2022-09-17T20:23:50.067Z,99.90
2022-09-17T20:26:18.045Z,99.90
2022-09-17T20:28:46.143Z,99.90
2022-09-17T20:31:28.635Z,99.90
2022-09-17T20:33:59.282Z,99.90
2022-09-17T20:36:31.023Z,99.90
2022-09-17T20:39:21.170Z,99.90
2022-09-17T20:41:45.281Z,99.90
2022-09-17T20:44:12.124Z,99.90
2022-09-17T20:46:39.000Z,99.90
2022-09-17T20:49:06.096Z,99.90
2022-09-17T20:51:33.832Z,99.90
2022-09-17T20:54:01.654Z,99.90
2022-09-17T20:56:33.386Z,99.90
2022-09-17T20:59:09.398Z,99.90
2022-09-17T21:01:37.629Z,99.90
2022-09-17T21:04:07.202Z,99.90
2022-09-17T21:06:42.341Z,99.90
2022-09-17T21:09:12.204Z,99.90
2022-09-17T21:11:39.484Z,99.90
2022-09-17T21:14:06.377Z,99.90
2022-09-17T21:16:33.284Z,99.90
2022-09-17T21:19:06.557Z,99.90
2022-09-17T21:21:34.594Z,99.90
2022-09-17T21:24:06.603Z,99.90
2022-09-17T21:26:37.367Z,99.90
2022-09-17T21:29:04.437Z,99.90
2022-09-17T21:31:34.527Z,99.90
2022-09-17T21:34:05.778Z,99.90
2022-09-17T21:36:36.414Z,99.90
2022-09-17T21:39:10.270Z,99.90
2022-09-17T21:41:42.143Z,99.90
2022-09-17T21:44:10.191Z,99.90
2022-09-17T21:46:38.087Z,99.90
2022-09-17T21:49:06.234Z,99.90
2022-09-17T21:51:40.632Z,99.90
2022-09-17T21:54:16.759Z,99.90
2022-09-17T21:56:45.394Z,99.90
2022-09-17T21:59:16.775Z,99.90
2022-09-17T22:01:48.136Z,99.90
2022-09-17T22:04:20.758Z,99.90
2022-09-17T22:06:49.780Z,99.90
2022-09-17T22:09:23.815Z,99.90
2022-09-17T22:11:52.614Z,99.90
2022-09-17T22:14:23.306Z,99.90
2022-09-17T22:16:54.751Z,99.90
2022-09-17T22:19:24.397Z,99.90
2022-09-17T22:21:54.498Z,99.90
2022-09-17T22:24:23.198Z,99.90
2022-09-17T22:26:57.427Z,99.90
2022-09-17T22:29:27.005Z,99.90
2022-09-17T22:31:54.234Z,99.90
2022-09-17T22:34:23.393Z,99.90
2022-09-17T22:36:50.910Z,99.90
2022-09-17T22:39:21.636Z,99.90
2022-09-17T22:41:49.084Z,99.90
2022-09-17T22:44:18.849Z,99.90
2022-09-17T22:46:49.125Z,99.90
2022-09-17T22:49:16.895Z,99.90
2022-09-17T22:51:46.497Z,99.90
2022-09-17T22:54:16.448Z,99.90
2022-09-17T22:56:43.369Z,99.90
2022-09-17T22:59:11.199Z,99.90
2022-09-17T23:01:40.202Z,99.90
2022-09-17T23:04:07.424Z,99.90
2022-09-17T23:06:38.224Z,99.90
2022-09-17T23:09:06.138Z,99.90
2022-09-17T23:11:38.616Z,99.90
2022-09-17T23:14:11.662Z,99.90
2022-09-17T23:16:43.922Z,99.90
2022-09-17T23:19:11.711Z,99.90
2022-09-17T23:21:39.895Z,99.90
2022-09-17T23:24:07.359Z,99.90
2022-09-17T23:26:34.550Z,99.90
2022-09-17T23:29:05.360Z,99.90
2022-09-17T23:31:34.759Z,99.90
2022-09-17T23:34:02.708Z,99.90
2022-09-17T23:36:32.591Z,99.90
2022-09-17T23:39:02.149Z,99.90
2022-09-17T23:41:40.446Z,99.90
2022-09-17T23:44:14.486Z,99.90
2022-09-17T23:46:42.063Z,99.90
2022-09-17T23:49:12.470Z,99.90
2022-09-17T23:51:39.559Z,99.90
2022-09-17T23:54:07.253Z,99.90
2022-09-17T23:56:35.321Z,99.90
2022-09-17T23:59:02.564Z,99.90
